Time;durP1;ratioP1;P1;durP2;ratioP2;P2;SDS_P1;SDS_P2;PMS_P1;PMS_P2;Temp;Humidity;BMP_temperature;BMP_pressure;BME280_temperature;BME280_humidity;BME280_pressure;Samples;Min_cycle;Max_cycle;Signal;HPM_P1;HPM_P2
2021/07/04 00:01:52;;;;;;;0.90;0.70;;;;;;;21.95;56.12;97533.75;5050457;28;20507;-74
2021/07/04 00:04:18;;;;;;;1.67;1.10;;;;;;;22.00;56.16;97530.59;5050729;28;20021;-74
2021/07/04 00:06:43;;;;;;;0.98;0.80;;;;;;;22.03;56.29;97527.06;5050568;28;20052;-73
2021/07/04 00:09:09;;;;;;;2.20;1.20;;;;;;;21.97;56.19;97520.22;5050685;28;20092;-73
2021/07/04 00:11:34;;;;;;;1.60;1.08;;;;;;;21.95;56.75;97521.78;5050452;28;20032;-73
2021/07/04 00:13:59;;;;;;;1.48;1.35;;;;;;;21.84;57.07;97519.66;5050136;28;20036;-73
2021/07/04 00:16:25;;;;;;;1.88;1.25;;;;;;;21.80;56.94;97520.81;5050170;28;20029;-72
2021/07/04 00:18:50;;;;;;;4.60;1.30;;;;;;;21.72;57.40;97524.66;5050215;28;20037;-73
2021/07/04 00:21:16;;;;;;;2.10;1.02;;;;;;;21.74;57.65;97533.47;5032301;28;20385;-75
2021/07/04 00:23:41;;;;;;;0.88;0.85;;;;;;;21.90;57.53;97531.28;5050122;28;20076;-75
2021/07/04 00:26:07;;;;;;;1.70;1.23;;;;;;;21.82;58.23;97524.81;5050936;28;20029;-73
2021/07/04 00:28:33;;;;;;;3.38;1.60;;;;;;;21.94;58.75;97517.41;5050195;28;20542;-74
2021/07/04 00:30:59;;;;;;;3.58;2.17;;;;;;;21.82;59.63;97521.22;5050308;28;20036;-73
2021/07/04 00:33:24;;;;;;;6.90;3.08;;;;;;;21.66;60.60;97520.59;5050189;28;20029;-74
2021/07/04 00:35:51;;;;;;;4.35;3.00;;;;;;;21.58;61.64;97516.91;5032427;28;20082;-73
2021/07/04 00:38:17;;;;;;;3.25;2.33;;;;;;;21.43;62.86;97505.97;5050420;28;20021;-73
2021/07/04 00:40:43;;;;;;;3.30;2.22;;;;;;;21.31;63.48;97516.16;5049938;28;20029;-74
2021/07/04 00:43:09;;;;;;;5.28;2.38;;;;;;;21.29;63.90;97518.53;5032128;28;20040;-73
2021/07/04 00:45:34;;;;;;;2.53;2.10;;;;;;;21.19;64.57;97521.97;5049933;28;20029;-75
2021/07/04 00:48:00;;;;;;;8.35;3.80;;;;;;;21.09;65.07;97524.56;5034779;28;20060;-73
2021/07/04 00:50:28;;;;;;;3.97;2.30;;;;;;;21.05;65.22;97523.72;5054178;28;20036;-74
2021/07/04 00:52:55;;;;;;;5.50;2.30;;;;;;;20.83;66.16;97523.34;5053731;28;20489;-75
2021/07/04 00:55:22;;;;;;;5.05;1.88;;;;;;;20.87;66.33;97520.63;5054354;28;20474;-74
2021/07/04 00:57:47;;;;;;;4.40;1.80;;;;;;;20.91;66.19;97523.47;5053825;28;20031;-76
2021/07/04 01:00:17;;;;;;;5.35;3.00;;;;;;;20.85;66.65;97514.66;5054057;28;20028;-74
2021/07/04 01:02:43;;;;;;;6.97;2.63;;;;;;;20.92;66.27;97513.97;5053730;28;20116;-74
2021/07/04 01:05:10;;;;;;;2.10;1.90;;;;;;;20.92;66.21;97505.63;5053644;28;20151;-74
2021/07/04 01:07:36;;;;;;;3.88;2.13;;;;;;;20.96;65.79;97510.03;5053688;28;20025;-75
2021/07/04 01:10:04;;;;;;;3.38;2.22;;;;;;;21.08;65.40;97501.47;5053468;28;20032;-74
2021/07/04 01:12:29;;;;;;;5.13;2.45;;;;;;;21.05;65.45;97495.91;5053136;28;20032;-76
2021/07/04 01:14:55;;;;;;;4.32;2.10;;;;;;;21.05;65.63;97490.34;5053533;28;20393;-76
2021/07/04 01:17:21;;;;;;;3.08;1.77;;;;;;;21.10;65.89;97493.63;5053523;28;20029;-74
2021/07/04 01:19:48;;;;;;;2.50;1.75;;;;;;;21.18;65.82;97489.75;5053672;28;20362;-74
2021/07/04 01:22:18;;;;;;;3.00;2.28;;;;;;;21.14;65.98;97479.75;5035668;28;20025;-74
2021/07/04 01:24:43;;;;;;;6.45;2.22;;;;;;;21.14;66.17;97483.34;5053841;28;20112;-74
2021/07/04 01:27:09;;;;;;;7.55;2.58;;;;;;;21.19;66.04;97480.22;5054312;28;20070;-74
2021/07/04 01:29:34;;;;;;;4.43;1.95;;;;;;;21.21;65.80;97483.44;5053926;28;20079;-73
2021/07/04 01:31:59;;;;;;;7.20;1.88;;;;;;;21.23;65.86;97478.31;5053808;28;20112;-74
2021/07/04 01:34:25;;;;;;;2.60;2.25;;;;;;;21.37;65.20;97477.69;5053285;28;20043;-74
2021/07/04 01:36:50;;;;;;;8.38;2.25;;;;;;;21.39;65.44;97482.88;5053614;28;20503;-74
2021/07/04 01:39:18;;;;;;;2.80;1.85;;;;;;;21.41;65.54;97480.50;5053541;28;20063;-75
2021/07/04 01:41:43;;;;;;;2.65;1.80;;;;;;;21.11;66.38;97475.72;5053275;28;20025;-73
2021/07/04 01:44:08;;;;;;;2.40;1.70;;;;;;;20.92;67.23;97467.50;5053462;28;20031;-74
2021/07/04 01:46:34;;;;;;;2.70;1.20;;;;;;;20.84;67.88;97468.56;5052906;28;20489;-74
2021/07/04 01:48:59;;;;;;;2.53;1.10;;;;;;;20.91;67.53;97474.22;5052969;28;20057;-74
2021/07/04 01:51:25;;;;;;;3.22;1.63;;;;;;;20.96;67.06;97482.25;5052977;28;20048;-75
2021/07/04 01:53:50;;;;;;;2.20;1.50;;;;;;;20.98;66.92;97482.69;5052978;28;20028;-76
2021/07/04 01:56:16;;;;;;;2.08;1.23;;;;;;;20.99;67.28;97487.03;5053544;28;20032;-73
2021/07/04 01:58:41;;;;;;;3.13;1.40;;;;;;;20.97;67.68;97492.19;5034534;28;20024;-74
2021/07/04 02:01:08;;;;;;;2.42;1.63;;;;;;;20.91;67.82;97482.56;5052853;28;20424;-73
2021/07/04 02:03:34;;;;;;;5.82;1.70;;;;;;;20.90;67.71;97492.06;5052714;28;20025;-74
2021/07/04 02:05:59;;;;;;;2.67;1.70;;;;;;;20.81;67.96;97484.00;5052444;28;20074;-76
2021/07/04 02:08:25;;;;;;;4.93;1.67;;;;;;;20.73;68.30;97478.72;5034670;28;20525;-74
2021/07/04 02:10:51;;;;;;;1.73;1.52;;;;;;;20.79;67.90;97480.81;5052829;28;20021;-76
2021/07/04 02:13:16;;;;;;;2.40;2.00;;;;;;;20.80;68.30;97479.63;5052496;28;20039;-76
2021/07/04 02:15:42;;;;;;;5.50;2.15;;;;;;;20.89;67.72;97482.16;5052821;28;20029;-76
2021/07/04 02:18:17;;;;;;;4.82;2.30;;;;;;;20.79;67.84;97478.03;5034455;28;20029;-76
2021/07/04 02:20:48;;;;;;;2.92;1.95;;;;;;;20.75;67.96;97471.59;5052489;28;20032;-75
2021/07/04 02:23:16;;;;;;;6.45;2.53;;;;;;;20.76;68.13;97472.41;5052083;28;20025;-75
2021/07/04 02:25:44;;;;;;;10.73;2.83;;;;;;;20.76;68.33;97472.41;5052483;28;20449;-74
2021/07/04 02:28:13;;;;;;;5.97;2.60;;;;;;;20.73;68.83;97473.16;5052272;28;20474;-74
2021/07/04 02:30:39;;;;;;;4.70;2.20;;;;;;;20.68;68.75;97465.13;5052067;28;20032;-74
2021/07/04 02:33:07;;;;;;;3.13;2.85;;;;;;;20.71;68.45;97473.50;5052196;28;20032;-74
2021/07/04 02:35:35;;;;;;;2.40;2.20;;;;;;;20.78;68.60;97484.75;5052183;28;20017;-74
2021/07/04 02:38:00;;;;;;;7.20;2.80;;;;;;;20.76;68.91;97487.13;5052065;28;20029;-75
2021/07/04 02:40:27;;;;;;;3.33;2.33;;;;;;;20.72;69.07;97489.03;5051876;28;20132;-74
2021/07/04 02:42:53;;;;;;;3.65;2.50;;;;;;;20.81;68.89;97491.53;5051878;28;20087;-74
2021/07/04 02:45:19;;;;;;;4.10;2.97;;;;;;;20.72;69.72;97494.59;5051975;28;20489;-75
2021/07/04 02:47:45;;;;;;;7.22;3.15;;;;;;;20.76;69.97;97494.66;5033315;28;20076;-73
2021/07/04 02:50:12;;;;;;;4.63;3.22;;;;;;;20.78;70.45;97497.84;5051715;28;20057;-74
2021/07/04 02:52:37;;;;;;;6.28;3.40;;;;;;;20.59;71.75;97495.97;5051603;28;20021;-74
2021/07/04 02:55:08;;;;;;;4.15;3.22;;;;;;;20.57;72.14;97501.09;5051286;28;20040;-74
2021/07/04 02:57:33;;;;;;;6.40;2.75;;;;;;;;;;5034688;28;20135;-74
2021/07/04 02:59:59;;;;;;;6.25;2.17;;;;;;;20.52;71.81;97506.16;5051810;28;20033;-74
2021/07/04 03:02:24;;;;;;;7.90;2.90;;;;;;;20.47;71.25;97506.47;5051229;28;20029;-73
2021/07/04 03:04:51;;;;;;;3.33;2.97;;;;;;;20.59;70.83;97501.53;5051447;28;20039;-73
2021/07/04 03:07:17;;;;;;;3.78;2.42;;;;;;;20.57;71.11;97505.84;5051541;28;20078;-74
2021/07/04 03:09:42;;;;;;;2.55;2.33;;;;;;;20.53;70.60;97514.13;5050611;28;20037;-74
2021/07/04 03:12:09;;;;;;;5.10;2.42;;;;;;;20.46;70.52;97513.19;5033103;28;20021;-74
2021/07/04 03:14:35;;;;;;;7.85;3.60;;;;;;;20.41;70.58;97516.28;5051375;28;20025;-74
2021/07/04 03:17:00;;;;;;;3.97;1.80;;;;;;;20.44;70.77;97516.34;5051510;28;20024;-76
2021/07/04 03:19:26;;;;;;;2.53;2.33;;;;;;;20.49;70.17;97513.25;5050959;28;20033;-74
2021/07/04 03:21:52;;;;;;;5.70;2.40;;;;;;;20.57;70.26;97520.56;5033377;28;20029;-75
2021/07/04 03:24:17;;;;;;;3.00;2.30;;;;;;;20.46;70.31;97519.56;5051227;28;20017;-74
2021/07/04 03:26:44;;;;;;;2.90;2.33;;;;;;;20.39;70.22;97522.22;5051599;28;20021;-74
2021/07/04 03:29:09;;;;;;;3.28;2.33;;;;;;;20.66;69.30;97523.06;5051463;28;20496;-75
2021/07/04 03:31:35;;;;;;;4.85;2.97;;;;;;;20.66;69.94;97534.19;5033433;28;20021;-75
2021/07/04 03:34:00;;;;;;;5.13;2.28;;;;;;;20.52;70.87;97531.16;5050803;28;20029;-75
2021/07/04 03:36:26;;;;;;;3.90;2.60;;;;;;;20.57;71.38;97536.44;5050921;28;20558;-74
2021/07/04 03:38:51;;;;;;;4.63;1.88;;;;;;;20.59;71.47;97536.84;5050730;28;20025;-75
2021/07/04 03:41:17;;;;;;;1.92;1.55;;;;;;;20.49;71.68;97540.22;5051132;28;20124;-74
2021/07/04 03:43:43;;;;;;;4.00;1.60;;;;;;;20.42;71.91;97540.13;5050854;28;20017;-75
2021/07/04 03:46:08;;;;;;;1.65;1.55;;;;;;;20.42;71.84;97546.50;5050711;28;20104;-74
2021/07/04 03:48:34;;;;;;;3.80;1.85;;;;;;;20.40;71.95;97536.91;5050603;28;20492;-74
2021/07/04 03:51:01;;;;;;;1.55;1.40;;;;;;;20.48;71.69;97549.75;5050466;28;20028;-74
2021/07/04 03:53:26;;;;;;;3.22;1.45;;;;;;;20.43;71.48;97534.19;5050636;28;20037;-75
2021/07/04 03:55:51;;;;;;;1.58;1.38;;;;;;;20.44;71.46;97549.69;5032541;28;20658;-74
2021/07/04 03:58:17;;;;;;;1.33;1.17;;;;;;;20.43;71.30;97544.50;5050970;28;20111;-76
2021/07/04 04:00:42;;;;;;;1.48;1.35;;;;;;;20.30;71.79;97544.69;5032696;28;20024;-74
2021/07/04 04:03:07;;;;;;;1.60;1.50;;;;;;;20.40;71.02;97550.78;5050199;28;20025;-75
2021/07/04 04:05:33;;;;;;;2.63;1.65;;;;;;;20.40;71.19;97548.81;5050650;28;20094;-75
2021/07/04 04:07:58;;;;;;;2.65;1.60;;;;;;;20.36;71.10;97553.50;5050489;28;20024;-75
2021/07/04 04:10:24;;;;;;;1.75;1.40;;;;;;;20.45;71.23;97553.28;5050526;28;20029;-75
2021/07/04 04:12:49;;;;;;;2.70;1.60;;;;;;;20.34;71.48;97555.03;5050552;28;20029;-74
2021/07/04 04:15:14;;;;;;;3.65;1.83;;;;;;;20.24;72.17;97551.69;5050500;28;20036;-74
2021/07/04 04:17:40;;;;;;;1.92;1.60;;;;;;;20.17;72.24;97551.53;5050193;28;20033;-74
2021/07/04 04:20:07;;;;;;;3.33;1.35;;;;;;;20.30;72.07;97550.22;5050590;28;20027;-74
2021/07/04 04:22:33;;;;;;;3.03;1.60;;;;;;;20.35;71.77;97556.66;5054574;28;20029;-74
2021/07/04 04:24:59;;;;;;;2.30;1.80;;;;;;;20.38;71.72;97559.50;5054614;28;20389;-74
2021/07/04 04:27:25;;;;;;;1.85;1.58;;;;;;;20.39;71.49;97558.34;5054824;28;20422;-74
2021/07/04 04:29:50;;;;;;;2.00;1.58;;;;;;;20.37;71.68;97563.44;5056198;28;20111;-74
2021/07/04 04:32:16;;;;;;;4.28;1.50;;;;;;;20.30;72.00;97550.22;5036755;28;20120;-74
2021/07/04 04:34:42;;;;;;;3.60;1.65;;;;;;;20.25;72.41;97558.03;5054331;28;20029;-76
2021/07/04 04:37:07;;;;;;;6.93;2.00;;;;;;;20.21;73.59;97562.72;5054309;28;20491;-75
2021/07/04 04:39:33;;;;;;;2.25;1.75;;;;;;;20.22;73.74;97561.56;5054240;28;20025;-75
2021/07/04 04:41:58;;;;;;;1.55;1.45;;;;;;;20.43;73.58;97563.94;5054256;28;20542;-73
2021/07/04 04:44:24;;;;;;;1.60;1.30;;;;;;;20.51;74.57;97560.13;5054078;28;20033;-76
2021/07/04 04:46:49;;;;;;;2.60;1.35;;;;;;;20.54;74.60;97568.53;5053733;28;20056;-75
2021/07/04 04:49:14;;;;;;;3.38;1.80;;;;;;;20.47;75.53;97565.63;5053984;28;20029;-74
2021/07/04 04:51:40;;;;;;;3.65;2.67;;;;;;;20.32;73.62;97561.00;5054009;28;20055;-75
2021/07/04 04:54:07;;;;;;;2.72;1.80;;;;;;;20.40;73.34;97570.25;5053872;28;20056;-75
2021/07/04 04:56:33;;;;;;;2.65;1.70;;;;;;;20.53;72.88;97568.91;5053979;28;20032;-74
2021/07/04 04:58:59;;;;;;;2.58;2.00;;;;;;;20.49;73.41;97571.63;5053740;28;20108;-74
2021/07/04 05:01:29;;;;;;;3.17;1.50;;;;;;;20.48;75.12;97577.56;5053713;28;20115;-74
2021/07/04 05:03:58;;;;;;;4.75;1.60;;;;;;;20.32;76.61;97566.53;5053793;28;20029;-75
2021/07/04 05:06:24;;;;;;;3.33;2.38;;;;;;;20.22;77.54;97567.09;5053342;28;20944;-73
2021/07/04 05:08:50;;;;;;;5.90;2.78;;;;;;;20.20;77.59;97580.56;5036224;28;20028;-75
2021/07/04 05:11:15;;;;;;;3.28;2.72;;;;;;;20.36;78.37;97580.50;5053565;28;20037;-74
2021/07/04 05:13:41;;;;;;;5.50;2.42;;;;;;;20.33;78.52;97579.25;5053432;28;20060;-75
2021/07/04 05:16:07;;;;;;;2.03;1.70;;;;;;;20.25;76.29;97581.06;5053308;28;20057;-75
2021/07/04 05:18:33;;;;;;;2.38;1.80;;;;;;;20.31;76.86;97592.72;5053474;28;20035;-74
2021/07/04 05:20:59;;;;;;;2.55;1.77;;;;;;;20.25;76.83;97592.19;5053480;28;20021;-75
2021/07/04 05:23:24;;;;;;;2.30;1.73;;;;;;;20.34;75.65;97593.94;5053360;28;20032;-75
2021/07/04 05:25:50;;;;;;;2.58;2.03;;;;;;;20.33;76.41;97592.34;5053438;28;20044;-75
2021/07/04 05:28:16;;;;;;;1.70;1.60;;;;;;;20.46;76.18;97602.13;5053489;28;20025;-75
2021/07/04 05:30:42;;;;;;;7.32;2.17;;;;;;;20.36;77.17;97591.63;5053364;28;20036;-75
2021/07/04 05:33:07;;;;;;;4.15;2.15;;;;;;;20.39;76.97;97590.88;5052541;28;20028;-76
2021/07/04 05:35:32;;;;;;;2.25;1.58;;;;;;;20.61;76.35;97592.88;5052961;28;20496;-75
2021/07/04 05:37:58;;;;;;;2.20;1.80;;;;;;;20.47;77.32;97598.16;5052533;28;20033;-75
2021/07/04 05:40:26;;;;;;;4.53;1.60;;;;;;;20.63;76.20;97596.91;5034802;28;20049;-76
2021/07/04 05:42:53;;;;;;;10.52;1.98;;;;;;;20.65;75.99;97599.28;5053129;28;20520;-75
2021/07/04 05:45:24;;;;;;;2.42;2.15;;;;;;;20.61;75.60;97599.22;5053020;28;20362;-75
2021/07/04 05:47:50;;;;;;;3.60;2.13;;;;;;;20.48;75.44;97597.81;5052318;28;20532;-75
2021/07/04 05:50:16;;;;;;;2.00;1.70;;;;;;;20.42;75.79;97598.47;5052970;28;20397;-75
2021/07/04 05:52:41;;;;;;;1.98;1.60;;;;;;;20.49;75.67;97602.19;5052854;28;20025;-75
2021/07/04 05:55:07;;;;;;;4.32;2.30;;;;;;;20.56;75.57;97596.75;5053160;28;20627;-75
2021/07/04 05:57:33;;;;;;;4.50;1.85;;;;;;;20.81;74.15;97600.78;5053165;28;20021;-74
2021/07/04 05:59:58;;;;;;;3.15;2.00;;;;;;;20.91;73.97;97607.72;5034521;28;20017;-75
2021/07/04 06:02:24;;;;;;;2.55;1.77;;;;;;;21.00;73.25;97608.25;5052942;28;20118;-74
2021/07/04 06:04:49;;;;;;;5.05;2.03;;;;;;;21.11;72.67;97614.81;5052807;28;20021;-74
2021/07/04 06:07:14;;;;;;;8.63;2.35;;;;;;;21.02;72.35;97614.25;5052730;28;20123;-74
2021/07/04 06:09:40;;;;;;;4.72;2.20;;;;;;;21.08;72.26;97618.31;5052651;28;20025;-74
2021/07/04 06:12:06;;;;;;;2.08;1.80;;;;;;;21.12;71.86;97612.84;5052368;28;20027;-74
2021/07/04 06:14:31;;;;;;;4.88;1.70;;;;;;;21.20;71.23;97609.03;5052447;28;20484;-74
2021/07/04 06:16:56;;;;;;;1.85;1.58;;;;;;;21.20;71.02;97620.16;5046250;28;20052;-74
2021/07/04 06:19:22;;;;;;;2.20;1.02;;;;;;;21.26;71.00;97616.69;5024225;28;20011;-74
2021/07/04 06:21:47;;;;;;;5.88;1.42;;;;;;;21.26;70.47;97608.34;5032226;28;20539;-74
2021/07/04 06:24:13;;;;;;;1.20;1.10;;;;;;;21.22;70.67;97610.25;5032167;28;20067;-74
2021/07/04 06:26:38;;;;;;;1.63;1.52;;;;;;;21.12;70.90;97615.63;5032147;28;20029;-78
2021/07/04 06:29:06;;;;;;;3.20;1.75;;;;;;;21.12;71.66;97610.88;5017782;28;20385;-80
2021/07/04 06:31:32;;;;;;;2.50;1.80;;;;;;;21.19;70.73;97608.22;5023108;28;20420;-78
2021/07/04 06:33:58;;;;;;;3.83;2.10;;;;;;;21.15;70.76;97596.22;5041418;28;20043;-77
2021/07/04 06:36:28;;;;;;;4.07;1.70;;;;;;;21.44;69.53;97625.28;5024585;28;20116;-76
2021/07/04 06:38:57;;;;;;;1.83;1.73;;;;;;;21.35;69.07;97614.44;5050060;28;20035;-78
2021/07/04 06:41:23;;;;;;;3.25;1.40;;;;;;;21.35;69.34;97619.19;5050184;28;20103;-79
2021/07/04 06:43:49;;;;;;;1.33;1.15;;;;;;;21.43;69.78;97622.88;5023763;28;20083;-80
2021/07/04 06:46:15;;;;;;;2.50;1.65;;;;;;;21.47;70.05;97623.75;5050023;28;20424;-80
2021/07/04 06:48:44;;;;;;;1.90;1.65;;;;;;;21.76;68.81;97615.44;5024093;28;20033;-79
2021/07/04 06:51:15;;;;;;;2.17;1.70;;;;;;;21.86;67.84;97600.06;5022820;28;20035;-77
2021/07/04 06:53:44;;;;;;;2.50;2.00;;;;;;;22.15;67.22;97624.31;5039142;28;20163;-86
2021/07/04 06:56:43;;;;;;;7.60;2.00;;;;;;;22.09;67.85;97616.69;5026555;28;20013;-79
2021/07/04 06:59:08;;;;;;;2.65;2.08;;;;;;;22.05;68.77;97613.06;5023378;28;20075;-80
2021/07/04 07:01:34;;;;;;;2.30;1.98;;;;;;;22.03;68.88;97602.28;5040019;28;20489;-80
2021/07/04 07:04:02;;;;;;;2.83;2.00;;;;;;;22.29;67.77;97624.50;5041137;28;20013;-79
2021/07/04 07:06:28;;;;;;;4.55;2.33;;;;;;;22.27;68.03;97612.91;5021327;28;20151;-80
2021/07/04 07:08:53;;;;;;;2.55;1.75;;;;;;;22.38;67.96;97602.72;5050056;28;20745;-79
2021/07/04 07:11:19;;;;;;;2.75;2.05;;;;;;;22.54;67.05;97615.63;5032382;28;20025;-79
2021/07/04 07:13:44;;;;;;;3.70;1.88;;;;;;;22.69;66.45;97612.63;5032912;28;20032;-81
2021/07/04 07:16:10;;;;;;;2.38;1.67;;;;;;;23.07;64.76;97611.38;5032544;28;20481;-76
2021/07/04 07:18:35;;;;;;;5.95;2.13;;;;;;;23.58;62.58;97613.41;5049703;28;20717;-78
2021/07/04 07:21:01;;;;;;;2.92;1.95;;;;;;;23.87;61.03;97620.78;5032567;28;20031;-77
2021/07/04 07:23:29;;;;;;;2.13;1.95;;;;;;;23.97;61.00;97614.41;5050798;28;20378;-79
2021/07/04 07:25:55;;;;;;;5.88;2.53;;;;;;;24.11;60.35;97608.13;5051735;28;20025;-77
2021/07/04 07:28:21;;;;;;;2.53;1.80;;;;;;;24.32;59.88;97609.03;5050870;28;20025;-78
2021/07/04 07:30:47;;;;;;;5.07;1.90;;;;;;;24.20;60.36;97603.78;5050222;28;20086;-77
2021/07/04 07:33:12;;;;;;;2.13;1.90;;;;;;;24.08;61.27;97597.72;5049631;28;20029;-79
2021/07/04 07:35:38;;;;;;;15.68;10.35;;;;;;;23.38;62.69;97594.09;5049774;28;20094;-81
2021/07/04 07:38:04;;;;;;;19.83;14.55;;;;;;;23.49;62.31;97599.00;5049363;28;20029;-77
2021/07/04 07:40:35;;;;;;;4.47;3.80;;;;;;;23.39;62.34;97604.13;5047649;28;20079;-80
2021/07/04 07:43:02;;;;;;;2.00;1.80;;;;;;;23.28;63.15;97586.44;5027665;28;20059;-79
2021/07/04 07:45:28;;;;;;;3.03;2.47;;;;;;;23.75;61.58;97599.53;5043390;28;20109;-83
2021/07/04 07:47:53;;;;;;;17.70;13.90;;;;;;;23.68;60.75;97587.53;5019740;28;20128;-80
2021/07/04 07:50:19;;;;;;;16.67;13.80;;;;;;;23.49;60.28;97596.19;5012141;28;20833;-79
2021/07/04 07:52:47;;;;;;;3.92;3.00;;;;;;;23.74;59.65;97583.19;5049025;28;20526;-80
2021/07/04 07:55:14;;;;;;;5.00;2.22;;;;;;;23.93;59.21;97586.44;5048015;28;20021;-80
2021/07/04 07:57:40;;;;;;;20.13;12.85;;;;;;;24.29;57.66;97587.44;5031154;28;20435;-78
2021/07/04 08:00:08;;;;;;;4.45;3.67;;;;;;;23.91;59.37;97585.25;5048804;28;20495;-78
2021/07/04 08:02:34;;;;;;;4.50;2.15;;;;;;;24.05;59.26;97590.91;5030997;28;20388;-79
2021/07/04 08:04:59;;;;;;;2.13;1.80;;;;;;;24.34;58.20;97577.88;5048862;28;20017;-78
2021/07/04 08:07:25;;;;;;;12.25;1.92;;;;;;;24.20;59.15;97583.41;5048994;28;20497;-79
2021/07/04 08:09:50;;;;;;;2.63;1.85;;;;;;;24.24;57.62;97582.25;5030938;28;20029;-79
2021/07/04 08:12:16;;;;;;;3.40;2.85;;;;;;;23.80;59.25;97571.25;5030878;28;20036;-78
2021/07/04 08:14:42;;;;;;;8.13;5.70;;;;;;;23.86;59.43;97582.84;5048719;28;20029;-79
2021/07/04 08:17:07;;;;;;;7.38;2.90;;;;;;;24.20;58.54;97580.63;5048068;28;20021;-79
2021/07/04 08:19:33;;;;;;;4.30;1.67;;;;;;;24.68;57.22;97579.16;5046765;28;20124;-80
2021/07/04 08:21:58;;;;;;;2.20;1.85;;;;;;;24.40;57.68;97599.44;5049251;28;20017;-81
2021/07/04 08:24:27;;;;;;;3.53;2.55;;;;;;;24.55;57.27;97588.31;5030732;28;20021;-79
2021/07/04 08:26:54;;;;;;;4.18;2.42;;;;;;;24.72;56.82;97595.94;5028960;28;20396;-79
2021/07/04 08:29:19;;;;;;;1.90;1.70;;;;;;;24.38;58.18;97613.03;5045826;28;20036;-76
2021/07/04 08:31:45;;;;;;;3.70;2.00;;;;;;;24.24;58.55;97603.81;5020250;28;20474;-79
2021/07/04 08:34:13;;;;;;;2.05;1.63;;;;;;;24.68;57.08;97606.34;5016483;28;20401;-77
2021/07/04 08:36:39;;;;;;;2.67;1.95;;;;;;;24.60;56.77;97602.72;5015620;28;20037;-78
2021/07/04 08:41:59;;;;;;;1.73;1.42;;;;;;;24.16;58.99;97611.34;5030179;28;20038;-79
2021/07/04 08:44:24;;;;;;;1.55;1.45;;;;;;;24.27;58.43;97612.22;5032933;28;20437;-78
2021/07/04 08:46:51;;;;;;;2.83;1.90;;;;;;;24.24;58.73;97606.59;5036908;28;20046;-79
2021/07/04 08:49:19;;;;;;;8.43;1.83;;;;;;;24.00;58.76;97602.47;5019311;28;20059;-78
2021/07/04 08:51:47;;;;;;;2.42;1.60;;;;;;;24.28;57.54;97602.59;5048058;28;20005;-75
2021/07/04 08:54:13;;;;;;;2.25;1.70;;;;;;;23.83;58.42;97603.19;5030343;28;20040;-79
2021/07/04 08:56:38;;;;;;;1.52;1.42;;;;;;;24.06;58.25;97586.91;5048622;28;20036;-78
2021/07/04 08:59:04;;;;;;;4.50;1.60;;;;;;;24.23;57.76;97603.00;5030834;28;20448;-80
2021/07/04 09:01:30;;;;;;;2.45;1.70;;;;;;;23.98;57.39;97599.25;5049125;28;20033;-78
2021/07/04 09:04:14;;;;;;;1.67;1.58;;;;;;;23.66;59.25;97601.06;5048346;28;20068;-80
2021/07/04 09:06:42;;;;;;;2.47;1.67;;;;;;;23.58;58.89;97591.88;5017934;28;20405;-79
2021/07/04 09:09:24;;;;;;;2.53;1.77;;;;;;;23.56;59.39;97587.84;5041663;28;20058;-78
2021/07/04 09:11:50;;;;;;;3.00;1.95;;;;;;;23.28;56.31;97597.59;5042725;28;20626;-78
2021/07/04 09:14:15;;;;;;;3.17;2.30;;;;;;;23.44;56.44;97589.78;5023323;28;20451;-79
2021/07/04 09:16:56;;;;;;;3.22;2.08;;;;;;;23.60;56.05;97591.47;5041032;28;20120;-79
2021/07/04 09:19:22;;;;;;;3.65;3.10;;;;;;;23.62;55.80;97580.72;5032607;28;20021;-77
2021/07/04 09:21:57;;;;;;;2.83;1.98;;;;;;;23.67;56.58;97600.69;5033533;28;20029;-79
2021/07/04 09:24:28;;;;;;;2.97;2.20;;;;;;;23.68;56.63;97585.53;5033942;28;20025;-79
2021/07/04 09:26:54;;;;;;;5.38;2.60;;;;;;;23.83;56.81;97597.59;5048677;28;20021;-77
2021/07/04 09:29:41;;;;;;;2.97;2.50;;;;;;;23.92;56.22;97600.84;5033933;28;20049;-78
2021/07/04 09:32:14;;;;;;;4.45;2.63;;;;;;;23.83;56.65;97592.00;5050571;28;20119;-77
2021/07/04 09:34:39;;;;;;;3.13;2.22;;;;;;;23.74;56.67;97583.19;5045743;28;20021;-78
2021/07/04 09:37:05;;;;;;;4.35;2.63;;;;;;;23.82;55.85;97579.22;5050843;28;20496;-76
2021/07/04 09:39:30;;;;;;;5.28;2.90;;;;;;;24.16;55.31;97577.81;5032865;28;20025;-79
2021/07/04 09:42:03;;;;;;;4.88;2.78;;;;;;;24.04;55.65;97586.50;5033153;28;20037;-76
2021/07/04 09:44:28;;;;;;;5.03;3.45;;;;;;;24.13;55.06;97581.38;5051010;28;20025;-76
2021/07/04 09:47:17;;;;;;;3.63;2.55;;;;;;;24.37;55.49;97571.50;5050822;28;20048;-75
2021/07/04 09:49:44;;;;;;;3.63;2.63;;;;;;;24.16;54.59;97577.00;5050230;28;20028;-77
2021/07/04 09:52:20;;;;;;;6.15;3.33;;;;;;;24.38;54.49;97559.91;5050795;28;20023;-75
2021/07/04 09:55:00;;;;;;;3.10;2.63;;;;;;;24.09;54.80;97568.59;5033187;28;20036;-77
2021/07/04 09:57:27;;;;;;;4.78;3.22;;;;;;;24.18;54.82;97566.25;5050293;28;20116;-77
2021/07/04 10:00:14;;;;;;;3.95;3.13;;;;;;;24.47;54.63;97557.53;5050899;28;20017;-75
2021/07/04 10:02:40;;;;;;;4.22;3.83;;;;;;;24.19;55.04;97554.66;5050838;28;20051;-72
2021/07/04 10:05:13;;;;;;;3.58;3.13;;;;;;;24.16;55.46;97544.25;5050647;28;20064;-76
2021/07/04 10:07:39;;;;;;;2.95;2.33;;;;;;;24.28;55.01;97535.50;5051142;28;20074;-82
2021/07/04 10:10:05;;;;;;;4.40;3.05;;;;;;;24.43;53.91;97534.34;5034129;28;20025;-80
2021/07/04 10:12:30;;;;;;;4.72;2.80;;;;;;;24.99;52.79;97538.44;5051198;28;20032;-79
2021/07/04 10:14:56;;;;;;;4.05;3.08;;;;;;;25.24;52.08;97535.63;5050934;28;20060;-81
2021/07/04 10:17:27;;;;;;;5.70;2.55;;;;;;;25.63;50.43;97522.34;5050468;28;20013;-82
2021/07/04 10:19:53;;;;;;;4.22;2.95;;;;;;;24.96;52.74;97547.63;5050460;28;20033;-79
2021/07/04 10:22:20;;;;;;;3.65;2.95;;;;;;;24.67;53.42;97545.97;5051299;28;20024;-81
2021/07/04 10:24:47;;;;;;;3.22;2.90;;;;;;;24.68;53.29;97537.19;5050776;28;21057;-76
2021/07/04 10:27:14;;;;;;;3.97;3.00;;;;;;;24.42;53.77;97546.75;5050024;28;20501;-75
2021/07/04 10:29:41;;;;;;;4.05;2.95;;;;;;;24.50;53.65;97551.13;5045744;28;20030;-77
2021/07/04 10:32:08;;;;;;;3.78;2.65;;;;;;;24.66;53.27;97566.75;5040425;28;20029;-76
2021/07/04 10:34:43;;;;;;;3.95;2.90;;;;;;;24.67;53.06;97562.75;5038404;28;20504;-75
2021/07/04 10:37:09;;;;;;;3.83;3.08;;;;;;;24.46;53.67;97564.31;5048125;28;20028;-75
2021/07/04 10:39:35;;;;;;;5.97;2.97;;;;;;;24.62;52.93;97561.13;5031626;28;20048;-76
2021/07/04 10:42:03;;;;;;;5.22;3.10;;;;;;;24.58;52.94;97553.97;5047161;28;20477;-75
2021/07/04 10:44:37;;;;;;;4.18;2.60;;;;;;;25.05;50.60;97562.03;5032165;28;20040;-75
2021/07/04 10:47:21;;;;;;;6.65;3.33;;;;;;;24.73;52.13;97558.38;5046959;28;20074;-77
2021/07/04 10:50:13;;;;;;;4.63;3.40;;;;;;;24.81;50.59;97562.78;5029571;28;20033;-76
2021/07/04 10:52:46;;;;;;;4.22;2.67;;;;;;;25.08;50.04;97564.03;5015011;28;20040;-76
2021/07/04 10:55:28;;;;;;;5.68;2.90;;;;;;;24.64;51.74;97555.97;5049787;28;20017;-76
2021/07/04 10:57:56;;;;;;;5.30;3.35;;;;;;;24.70;51.43;97554.38;5030381;28;20025;-75
2021/07/04 11:00:26;;;;;;;4.88;3.08;;;;;;;24.67;51.47;97549.56;5047518;28;20033;-77
2021/07/04 11:02:58;;;;;;;5.15;2.97;;;;;;;24.44;52.24;97555.53;5049535;28;20044;-75
2021/07/04 11:05:31;;;;;;;5.05;2.90;;;;;;;24.73;51.69;97549.97;5046998;28;20029;-76
2021/07/04 11:07:57;;;;;;;5.57;3.17;;;;;;;24.55;52.13;97551.94;5049053;28;20547;-75
2021/07/04 11:10:24;;;;;;;5.40;3.35;;;;;;;24.73;51.83;97550.78;5049475;28;20013;-76
2021/07/04 11:12:53;;;;;;;3.45;2.80;;;;;;;24.80;51.84;97556.38;5049090;28;20048;-76
2021/07/04 11:15:19;;;;;;;4.05;2.53;;;;;;;24.90;52.10;97543.63;5031213;28;20024;-76
2021/07/04 11:18:00;;;;;;;3.22;2.83;;;;;;;24.93;51.60;97543.63;5049228;28;20112;-74
2021/07/04 11:20:29;;;;;;;3.50;3.20;;;;;;;24.52;52.31;97540.38;5029659;28;20499;-78
2021/07/04 11:22:58;;;;;;;4.82;2.92;;;;;;;24.45;52.94;97531.97;5048997;28;20070;-73
2021/07/04 11:25:36;;;;;;;8.35;2.67;;;;;;;24.98;52.04;97536.81;5049895;28;20116;-76
2021/07/04 11:28:18;;;;;;;3.63;2.80;;;;;;;25.07;51.29;97528.81;5017576;28;20033;-75
2021/07/04 11:30:44;;;;;;;6.95;2.65;;;;;;;25.29;51.13;97526.78;5029032;28;20083;-74
2021/07/04 11:33:42;;;;;;;4.63;3.10;;;;;;;25.42;50.63;97527.97;5049420;28;20032;-76
2021/07/04 11:36:19;;;;;;;6.35;3.00;;;;;;;25.13;50.11;97523.59;5048485;28;20500;-77
2021/07/04 11:38:44;;;;;;;7.85;3.17;;;;;;;25.52;50.06;97515.97;5048839;28;20029;-74